Sam Reyna

Scout - Los Angeles Football Club
3 Dez 2028
Sonntag
Verarbeitung

Persönlichkeit

Anpassungsfähigkeit (12) Ehrgeiz (16) Kontroverse (13) Loyalität (13) Druck (18) Professionalität (1) Fairness (7) Temperament (3)

Profil

Trainerstil Demokratisch
Lizenz Nationale A
Entschlossenheit 7
Menschenführung 12
Motivation 7
Disziplin 9
Arbeitszufriedenheit
100%
Ermüdung
0%
Rolle Scout
Gehalt 64.1K p/W
Vertrag 14.03.2029

Leistung

Verhalten Gut
Trainingseffektivität
36%
Spielerentwicklung
25%
Verletzungsprävention
35%
Taktische Umsetzung
20%

Letzte Ereignisse

Spieler begutachtet jetzt
Nahm an einer Scouting-Besprechung teil jetzt
Spieler begutachtet jetzt
Nahm an einer Scouting-Besprechung teil 7T her
Spieler begutachtet 7T her
Spieler begutachtet 7T her
Spieler begutachtet 7T her
Spieler begutachtet 7T her

Aktuell beobachtet

92
Spieler Verein Status Fähigkeit Vertrauen Beobachtet Zuletzt beobachtet Letzte Stimme
Máximo Munarriz San Telmo Aktiv 110 / 112 40% 4 01.12.2028 -
Louis Page Leicester City Aktiv 148 / 158 40% 3 01.12.2028 -
Aidan Borland Espanyol Aktiv 105 / 116 40% 2 29.11.2028 -
Salvador Blopá Wolverhampton Aktiv 133 / 122 40% 2 29.11.2028 -
Ntando Tshwana Jomo Cosmos Aktiv 83 / 102 40% 1 28.11.2028 -
Rhys Chadwick Blackpool Aktiv 116 / 115 40% 1 28.11.2028 -
Peyton Miller New England Revolution Aktiv 118 / 109 40% 2 27.11.2028 -
Matías Magdaleno Estudiantes Aktiv 104 / 122 40% 2 27.11.2028 -
Joel Ezra Enyimba Aktiv 92 / 93 40% 7 25.11.2028 -
Tyson Pearce St. Louis CITY SC Aktiv 100 / 104 40% 2 25.11.2028 -
Bendito Mantato Manchester United Aktiv 103 / 132 40% 2 24.11.2028 -
Olivier Leroux Mouscron Aktiv 99 / 107 40% 2 24.11.2028 -
Ezra Mayers West Ham United Aktiv 121 / 143 40% 2 23.11.2028 -
Tyler Fletcher Rotherham United Aktiv 120 / 127 40% 2 23.11.2028 -
Trey Nyoni Rotherham United Aktiv 144 / 139 40% 4 21.11.2028 -
Dovydas Sasnauskas Sheffield United Aktiv 126 / 136 40% 3 21.11.2028 -
Somtochuwku Ezenabo Kwara United Aktiv 106 / 93 40% 1 20.11.2028 -
Christos Mouzakitis Hull City Aktiv 135 / 147 40% 6 17.11.2028 -
Aytor Herrera Mineros de Guayana Aktiv 98 / 82 40% 2 17.11.2028 -
Cole Deeming West Bromwich Albion Aktiv 89 / 107 40% 1 16.11.2028 -
Francisco Machis Llaneros Aktiv 89 / 94 40% 4 14.11.2028 -
Ivan Borges Defensores Aktiv 84 / 95 40% 1 14.11.2028 -
Abubakar Adams Aduana Stars Aktiv 76 / 79 40% 3 13.11.2028 -
Gideon Manaseh Ikorodu City Aktiv 80 / 87 40% 7 11.11.2028 -
Facundo Balatti Penarol Aktiv 101 / 102 40% 3 11.11.2028 -
Calvin Diakite Chesterfield Aktiv 98 / 95 40% 2 10.11.2028 -
Felipe Pujol Vélez Aktiv 109 / 120 40% 1 07.11.2028 -
Andrey Ivlev Nizhniy Novgorod Aktiv 109 / 108 40% 1 07.11.2028 -
Sebastian Rodriguez Houston Dynamo Aktiv 117 / 114 40% 3 06.11.2028 -
Lucas Herrington Hull City Aktiv 104 / 104 40% 2 03.11.2028 -
Onyeuche Ujunwa Ikorodu City Aktiv 81 / 78 40% 2 01.11.2028 -
Diego León Rotherham United Aktiv 130 / 147 40% 3 29.10.2028 -
Martim Cunha Porto Aktiv 115 / 107 40% 1 29.10.2028 -
Anderson Acevedo Bogota Aktiv 83 / 102 40% 1 24.10.2028 -
Carter Pinnington Liverpool Aktiv 110 / 111 40% 3 23.10.2028 -
Máximo Magnoli Ferro Carril Oeste Aktiv 99 / 97 40% 2 21.10.2028 -
Ronan Kpakio AC Milan Aktiv 138 / 139 40% 1 21.10.2028 -
Honest Ahanor Atalanta Aktiv 139 / 137 40% 2 14.10.2028 -
Jayce Fitzgerald Manchester United Aktiv 115 / 123 40% 1 14.10.2028 -
Jack Shorrock Port Vale Aktiv 100 / 118 40% 1 13.10.2028 -
Jan Cedilnik Chikhura Aktiv 89 / 92 40% 1 12.10.2028 -
Agustín Medina Lanús Aktiv 118 / 132 40% 1 12.10.2028 -
Tiago Gordillo San Miguel Aktiv 78 / 106 40% 3 11.10.2028 -
Jacob Vickers Brighton Aktiv 102 / 107 40% 1 10.10.2028 -
Jun'ai Byfield Tottenham Aktiv 122 / 119 40% 1 08.10.2028 -
Ayyoub Bouaddi Stoke City Aktiv 143 / 150 40% 1 03.10.2028 -
Giovanni Leoni Lincoln City Aktiv 153 / 145 40% 1 01.10.2028 -
Leo Shahar Newcastle United Aktiv 105 / 121 40% 2 29.09.2028 -
Lucas Camejo River Plate Aktiv 87 / 98 40% 2 29.09.2028 -
Riquelme Thompson-Jones Accrington Stanley Aktiv 115 / 107 40% 1 26.09.2028 -
Matai Akinmboni Bournemouth Aktiv 101 / 137 40% 2 25.09.2028 -
Jaydan Kamason Manchester United Aktiv 127 / 108 40% 2 24.09.2028 -
Ollie Harrison Hull City Aktiv 91 / 104 40% 1 22.09.2028 -
Callum Olusesi Tottenham Aktiv 126 / 114 40% 2 21.09.2028 -
Harrison Armstrong Ipswich Town Aktiv 134 / 145 40% 4 20.09.2028 -
Luis Otávio Orlando City Aktiv 116 / 112 40% 3 19.09.2028 -
Lautaro Dufur Juventud Aktiv 101 / 111 40% 2 19.09.2028 -
Paul Junior Rivers United Aktiv 104 / 116 40% 2 14.09.2028 -
Estanislao López Colón Aktiv 84 / 89 40% 2 14.09.2028 -
Ayden Heaven Portsmouth Aktiv 151 / 159 40% 2 13.09.2028 -
Celías Ingenthron Platense Aktiv 120 / 117 40% 2 11.09.2028 -
Jim Thwaites Manchester United Aktiv 122 / 144 40% 1 07.09.2028 -
Kiano Dyer Chelsea Aktiv 124 / 116 40% 1 06.09.2028 -
Zach Baumann Norwich City Aktiv 111 / 126 40% 1 01.09.2028 -
Felipe Varela Trujillanos Aktiv 85 / 101 40% 1 01.09.2028 -
Emeka Adiele Utrecht Aktiv 118 / 126 40% 1 30.08.2028 -
Triston Rowe Derby County Aktiv 131 / 140 40% 1 29.08.2028 -
Hosea Michael Remo Stars Aktiv 91 / 80 40% 1 20.08.2028 -
Augusto Bando Ascoli Aktiv 110 / 115 40% 1 20.08.2028 -
Femi Fapetu Manchester City Aktiv 114 / 103 40% 1 18.08.2028 -
Simone Suppa Virtus Verona Aktiv 84 / 95 40% 1 16.08.2028 -
Kamaldeen Atiemo Wa All Stars Aktiv 117 / 107 40% 1 14.08.2028 -
Alfie Cresswell Leeds United Aktiv 101 / 126 40% 1 14.08.2028 -
Nour Ashraf ENPPI Aktiv 79 / 91 40% 1 10.08.2028 -
Daniel Banjaqui Benfica Aktiv 138 / 117 40% 3 03.07.2028 -
Jan Bürger Northampton Town Aktiv 135 / 131 40% 2 14.06.2028 -
Peter Amidu Acquah Asante Kotoko Aktiv 98 / 109 40% 1 11.06.2028 -
Shea Lacey Crystal Palace Aktiv 133 / 150 40% 1 11.06.2028 -
Ryan Kavuma-McQueen Accrington Stanley Aktiv 114 / 127 40% 1 10.06.2028 -
Rio Ngumoha Plymouth Argyle Aktiv 129 / 140 40% 1 08.06.2028 -
Vincenzo Damiano Atalanta Aktiv 100 / 112 40% 1 07.06.2028 -
Luca Williams-Barnett Walsall Aktiv 112 / 125 40% 2 04.06.2028 -
Ibrahim Fullah Charlton Athletic Aktiv 135 / 123 40% 1 02.06.2028 -
Kerim Alajbegović Modena Aktiv 141 / 154 40% 1 02.06.2028 -
Kwandile Gumemde US Bougouni Aktiv 74 / 76 40% 1 31.05.2028 -
Ryan McAidoo Oldham Athletic Aktiv 108 / 144 40% 1 31.05.2028 -
Josh Nichols Oldham Athletic Aktiv 124 / 127 40% 1 27.05.2028 -
Gabriel Mec Feirense Aktiv 127 / 125 40% 2 26.05.2028 -
Bernardo Lima Porto Aktiv 94 / 111 40% 1 24.05.2028 -
Simphiwe Selepe Orlando Pirates Aktiv 126 / 138 40% 1 02.02.2027 -
Law McCabe Middlesbrough Aktiv 91 / 134 40% 1 02.02.2027 -
Kobbie Mainoo Manchester United Aktiv 130 / 132 40% 1 01.08.2026 -